Home PIREPS Pireps

Flight BEL2719

  • Submitted By: John Hewson
  • Departure Airport: Bruxelles National (EBBR)
  • Arrival Airport: airoport Geneve-Cointrin (LSGG)
  • Aircraft: A319-113 (OO-SSP)
  • Flight Time: 01.19
  • Date Submitted: 08/02/2015
  • Status: Accepted
Flight Details
Gross Revenue:
(121 load / € 0.00 per unit
€ 0.00
Fuel Cost:
(3228 fuel used @ 5.1 / unit)
€ 16,462.80

Additional Log Information:

View Log

Aircraft Used in flight is Airbus A319 Brussels Airlines OO-SSE
18:01 Brakes are On
18:02 Brakes are Released
18:04 Brakes are On
18:04 Brakes are Released
18:05 Brakes are On
18:07 Brakes are Released
18:12 You Took off @ 160 Knots and Flaps at Position 2
Departure Weather
EBBR 081750Z 32005KT CAVOK 04/M02 Q1034 NOSIGrn
18:12 Landing Gear Up @ 169 Knots and 290 Feet
18:15 Below 10000 feet you are not allowed to go over 250 knots
18:16 Above FL100 you need to switch of the landing lights
18:43 Paused
18:56 Unpaused
19:11 You exceeded maximum bank angle
19:16 Paused
20:20 Unpaused
20:23 Landing Gear Down @ 187 Knots and 5970 Feet
20:31 You Landed @ 126 Knots and with -600 Vertical Speed
Arrival Weather
LSGG 082020Z 03019G29KT 9999 FEW025 01/M04 Q1026 NOSIGrn
20:31 Your Landing was very hard
20:34 Brakes are On
20:35 Brussels Bel-Track1.0.0.8

Route Map

Corporate About Us Our Team Vacancies Information Fleet Route Network Rules and Regulations Operations Flight Schedules Event Center Tours Partners IVAO Vatsim Acars dev FSCB

fb Users Online No pilots online!
0 Pilot(s) and 117 Guest(s) Online
CMS by phpVMS - Design by Crazycreatives.com - Copyright © 2018 - Brussels Airlines Virtual